Time;durP1;ratioP1;P1;durP2;ratioP2;P2;SDS_P1;SDS_P2;PMS_P1;PMS_P2;Temp;Humidity;BMP_temperature;BMP_pressure;BME280_temperature;BME280_humidity;BME280_pressure;Samples;Min_cycle;Max_cycle;Signal;HPM_P1;HPM_P2
2020/12/14 00:00:15;;;;;;;31.50;28.57;;;6.30;1.00;;;;;;5097330;28;20217;-67
2020/12/14 00:02:41;;;;;;;31.25;25.45;;;6.40;1.00;;;;;;5097216;28;20410;-67
2020/12/14 00:05:08;;;;;;;28.85;25.95;;;6.30;1.00;;;;;;5096879;28;20181;-67
2020/12/14 00:07:34;;;;;;;29.23;26.50;;;6.40;1.00;;;;;;5096685;28;20196;-67
2020/12/14 00:10:01;;;;;;;29.73;26.95;;;6.40;1.00;;;;;;5096890;28;20173;-67
2020/12/14 00:12:28;;;;;;;24.75;22.58;;;6.40;1.00;;;;;;5096825;28;20187;-67
2020/12/14 00:14:53;;;;;;;30.05;25.60;;;6.30;1.00;;;;;;5097010;28;20645;-67
2020/12/14 00:17:20;;;;;;;27.63;24.70;;;6.40;1.00;;;;;;5097049;28;20275;-67
2020/12/14 00:19:47;;;;;;;29.38;26.42;;;6.40;1.00;;;;;;5096634;28;20519;-67
2020/12/14 00:22:13;;;;;;;30.42;27.67;;;6.30;1.00;;;;;;5096538;28;20686;-67
2020/12/14 00:24:38;;;;;;;32.80;29.73;;;6.40;1.00;;;;;;5096933;28;20260;-67
2020/12/14 00:27:04;;;;;;;19.90;17.80;;;6.40;1.00;;;;;;5096509;28;20200;-67
2020/12/14 00:29:30;;;;;;;20.83;18.80;;;6.40;1.00;;;;;;5096763;28;20255;-67
2020/12/14 00:31:56;;;;;;;23.88;21.42;;;6.40;1.00;;;;;;5096216;28;20440;-67
2020/12/14 00:34:22;;;;;;;21.37;19.37;;;6.40;1.00;;;;;;5096306;28;20192;-67
2020/12/14 00:36:48;;;;;;;26.52;23.92;;;6.40;1.00;;;;;;5096432;28;20649;-67
2020/12/14 00:39:14;;;;;;;27.80;25.47;;;6.40;1.00;;;;;;5096325;28;20180;-67
2020/12/14 00:41:40;;;;;;;24.17;22.03;;;6.40;1.00;;;;;;5095926;28;20172;-67
2020/12/14 00:44:05;;;;;;;29.13;27.13;;;6.40;1.00;;;;;;5095974;28;20959;-67
2020/12/14 00:46:31;;;;;;;20.60;18.57;;;6.40;1.00;;;;;;5096411;28;20279;-67
2020/12/14 00:48:57;;;;;;;24.97;22.87;;;6.30;1.00;;;;;;5096254;28;20171;-67
2020/12/14 00:51:27;;;;;;;23.33;21.43;;;6.30;1.00;;;;;;5096130;28;20294;-67
2020/12/14 00:53:53;;;;;;;23.05;20.83;;;6.30;1.00;;;;;;5096106;28;20234;-67
2020/12/14 00:56:18;;;;;;;21.05;18.95;;;6.30;1.00;;;;;;5095810;28;20207;-67
2020/12/14 00:58:44;;;;;;;21.80;20.07;;;6.20;1.00;;;;;;5096252;28;20168;-67
2020/12/14 01:01:12;;;;;;;21.43;19.80;;;6.20;1.00;;;;;;5095400;28;20180;-67
2020/12/14 01:03:37;;;;;;;22.48;20.75;;;6.30;1.00;;;;;;5095051;28;20172;-67
2020/12/14 01:06:03;;;;;;;22.57;20.70;;;6.30;1.00;;;;;;5095271;28;20197;-67
2020/12/14 01:08:29;;;;;;;27.40;25.30;;;6.30;1.00;;;;;;5095809;28;20176;-67
2020/12/14 01:10:54;;;;;;;24.90;22.83;;;6.30;1.00;;;;;;5095577;28;20557;-67
2020/12/14 01:13:20;;;;;;;24.50;22.67;;;6.30;1.00;;;;;;5095301;28;20218;-67
2020/12/14 01:15:46;;;;;;;26.83;24.43;;;6.30;1.00;;;;;;5095750;28;20195;-67
2020/12/14 01:18:12;;;;;;;22.35;20.55;;;6.30;1.00;;;;;;5095373;28;20168;-67
2020/12/14 01:20:40;;;;;;;22.70;20.53;;;6.30;1.00;;;;;;5095307;28;20223;-68
2020/12/14 01:23:06;;;;;;;20.10;18.13;;;6.20;1.00;;;;;;5095500;28;20164;-67
2020/12/14 01:25:32;;;;;;;25.23;23.33;;;6.20;1.00;;;;;;5095405;28;20526;-67
2020/12/14 01:27:57;;;;;;;28.27;25.90;;;6.20;1.00;;;;;;5095445;28;20470;-67
2020/12/14 01:30:24;;;;;;;24.03;22.27;;;6.20;1.00;;;;;;5095654;28;20176;-67
2020/12/14 01:32:50;;;;;;;16.55;15.10;;;6.20;1.00;;;;;;5094909;28;20221;-67
2020/12/14 01:35:16;;;;;;;20.08;18.38;;;6.20;1.00;;;;;;5095055;28;20535;-68
2020/12/14 01:37:41;;;;;;;22.27;20.60;;;6.30;1.00;;;;;;5095264;28;20160;-67
2020/12/14 01:40:07;;;;;;;21.87;20.13;;;6.30;1.00;;;;;;5095316;28;20550;-67
2020/12/14 01:42:37;;;;;;;21.47;19.90;;;6.30;1.00;;;;;;5093555;28;20172;-67
2020/12/14 01:45:03;;;;;;;23.02;21.23;;;6.30;1.00;;;;;;5095389;28;20235;-67
2020/12/14 01:47:37;;;;;;;20.47;19.07;;;6.30;1.00;;;;;;5094745;28;20674;-67
2020/12/14 01:50:04;;;;;;;21.98;20.52;;;6.30;1.10;;;;;;5094997;28;20157;-67
2020/12/14 01:52:30;;;;;;;23.40;21.50;;;6.30;1.00;;;;;;5094974;28;20483;-67
2020/12/14 01:55:00;;;;;;;24.50;22.95;;;6.30;1.00;;;;;;5095126;28;20242;-67
2020/12/14 01:57:26;;;;;;;26.38;24.58;;;6.30;1.00;;;;;;5094840;28;20234;-67
2020/12/14 01:59:53;;;;;;;29.17;27.17;;;6.40;1.00;;;;;;5094525;28;20169;-67
2020/12/14 02:02:19;;;;;;;23.15;21.75;;;6.30;1.00;;;;;;5094579;28;20447;-67
2020/12/14 02:04:44;;;;;;;28.50;26.90;;;6.30;1.00;;;;;;5094693;28;20563;-67
2020/12/14 02:07:10;;;;;;;23.17;21.57;;;6.40;1.00;;;;;;5094689;28;20235;-67
2020/12/14 02:09:35;;;;;;;23.80;21.90;;;6.40;1.00;;;;;;5094513;28;20222;-67
2020/12/14 02:12:01;;;;;;;23.07;21.57;;;6.40;1.00;;;;;;5094338;28;20648;-67
2020/12/14 02:14:27;;;;;;;25.10;22.87;;;6.40;1.00;;;;;;5094634;28;20169;-67
2020/12/14 02:16:52;;;;;;;22.87;21.37;;;6.30;1.00;;;;;;5094215;28;20188;-67
2020/12/14 02:19:18;;;;;;;21.97;20.50;;;6.40;1.00;;;;;;5094416;28;20228;-67
2020/12/14 02:21:43;;;;;;;23.53;21.70;;;6.40;1.00;;;;;;5094076;28;20203;-67
2020/12/14 02:24:17;;;;;;;20.03;18.37;;;6.40;1.00;;;;;;5094619;28;20623;-67
2020/12/14 02:26:48;;;;;;;19.98;18.45;;;6.40;1.20;;;;;;5094015;28;20237;-67
2020/12/14 02:29:15;;;;;;;23.88;22.27;;;6.50;1.20;;;;;;5094275;28;20171;-67
2020/12/14 02:31:40;;;;;;;21.65;20.27;;;6.50;1.80;;;;;;5094061;28;20164;-67
2020/12/14 02:34:06;;;;;;;18.90;17.60;;;6.50;1.60;;;;;;5093772;28;20651;-67
2020/12/14 02:36:32;;;;;;;19.13;17.73;;;6.50;2.20;;;;;;5094367;28;20194;-67
2020/12/14 02:38:57;;;;;;;20.47;19.03;;;6.50;1.90;;;;;;5094482;28;20167;-68
2020/12/14 02:41:23;;;;;;;23.20;21.70;;;6.50;4.40;;;;;;5094062;28;20196;-67
2020/12/14 02:43:48;;;;;;;24.03;22.53;;;6.50;6.20;;;;;;5094026;28;20200;-67
2020/12/14 02:46:14;;;;;;;22.10;20.60;;;6.50;5.30;;;;;;5093596;28;20188;-67
2020/12/14 02:48:39;;;;;;;21.83;19.90;;;6.40;4.30;;;;;;5093980;28;20176;-67
2020/12/14 02:51:05;;;;;;;20.77;19.20;;;6.40;5.50;;;;;;5093947;28;20194;-67
2020/12/14 02:53:30;;;;;;;20.77;19.33;;;6.40;6.30;;;;;;5093611;28;20164;-66
2020/12/14 02:55:56;;;;;;;18.33;17.10;;;6.40;7.70;;;;;;5094062;28;20180;-67
2020/12/14 02:58:21;;;;;;;21.30;19.97;;;6.40;8.60;;;;;;5093712;28;20169;-67
2020/12/14 03:00:47;;;;;;;19.10;17.90;;;6.40;10.90;;;;;;5093653;28;20245;-67
2020/12/14 03:03:13;;;;;;;22.43;21.23;;;6.40;10.70;;;;;;5093781;28;20199;-67
2020/12/14 03:05:38;;;;;;;18.10;16.80;;;6.40;10.60;;;;;;5093767;28;20191;-67
2020/12/14 03:08:04;;;;;;;23.83;22.40;;;6.40;11.70;;;;;;5094117;28;20189;-67
2020/12/14 03:10:29;;;;;;;17.80;16.63;;;6.40;13.40;;;;;;5093833;28;20183;-66
2020/12/14 03:12:55;;;;;;;19.67;18.60;;;6.40;12.40;;;;;;5093534;28;20169;-67
2020/12/14 03:15:21;;;;;;;16.30;15.30;;;6.40;13.50;;;;;;5093622;28;20168;-67
2020/12/14 03:17:46;;;;;;;19.97;18.70;;;6.40;15.30;;;;;;5093917;28;20164;-67
2020/12/14 03:20:12;;;;;;;22.00;20.67;;;6.40;14.90;;;;;;5093805;28;20180;-67
2020/12/14 03:22:37;;;;;;;18.80;17.87;;;6.40;15.90;;;;;;5091968;28;20180;-67
2020/12/14 03:25:03;;;;;;;15.37;14.57;;;6.40;17.70;;;;;;5093989;28;20179;-67
2020/12/14 03:27:29;;;;;;;15.97;15.10;;;6.50;18.50;;;;;;5094500;28;20192;-67
2020/12/14 03:29:54;;;;;;;16.10;14.90;;;6.50;20.30;;;;;;5097563;28;20676;-67
2020/12/14 03:32:20;;;;;;;17.57;15.77;;;6.40;22.10;;;;;;5097646;28;20202;-67
2020/12/14 03:34:45;;;;;;;22.40;20.90;;;6.50;23.50;;;;;;5097116;28;20185;-67
2020/12/14 03:37:11;;;;;;;15.63;14.70;;;6.40;3.40;;;;;;5097727;28;20196;-67
2020/12/14 03:39:36;;;;;;;17.60;16.70;;;6.50;4.70;;;;;;5097846;28;20196;-67
2020/12/14 03:42:02;;;;;;;22.80;21.47;;;6.50;6.40;;;;;;5097085;28;20168;-67
2020/12/14 03:44:27;;;;;;;18.77;17.97;;;6.50;6.90;;;;;;5097389;28;20522;-67
2020/12/14 03:46:53;;;;;;;19.00;17.90;;;6.50;6.90;;;;;;5097245;28;20192;-66
2020/12/14 03:49:19;;;;;;;22.97;21.33;;;6.50;9.80;;;;;;5097394;28;20679;-67
2020/12/14 03:51:44;;;;;;;25.47;24.10;;;6.60;11.00;;;;;;5097112;28;20188;-67
2020/12/14 03:54:10;;;;;;;18.27;17.23;;;6.60;11.20;;;;;;5097292;28;20591;-67
2020/12/14 03:56:35;;;;;;;20.47;19.17;;;6.50;11.90;;;;;;5096865;28;20195;-67
2020/12/14 03:59:01;;;;;;;18.00;16.80;;;6.50;14.10;;;;;;5096996;28;20229;-67
2020/12/14 04:01:28;;;;;;;17.10;15.97;;;6.50;15.80;;;;;;5096782;28;20161;-67
2020/12/14 04:03:54;;;;;;;19.15;17.80;;;6.50;16.20;;;;;;5097210;28;20169;-67
2020/12/14 04:06:24;;;;;;;17.80;16.47;;;6.60;17.10;;;;;;5096805;28;20677;-67
2020/12/14 04:08:52;;;;;;;18.38;17.38;;;6.60;17.80;;;;;;5096652;28;20609;-67
2020/12/14 04:11:17;;;;;;;17.52;16.58;;;6.70;17.70;;;;;;5096445;28;20173;-67
2020/12/14 04:13:44;;;;;;;18.93;17.87;;;6.70;18.80;;;;;;5096572;28;20230;-67
2020/12/14 04:16:10;;;;;;;21.75;20.42;;;6.60;20.90;;;;;;5096504;28;20866;-67
2020/12/14 04:18:36;;;;;;;23.40;22.33;;;6.60;22.70;;;;;;5097005;28;20200;-67
2020/12/14 04:21:03;;;;;;;19.40;18.02;;;6.60;23.00;;;;;;5096920;28;20177;-67
2020/12/14 04:23:28;;;;;;;17.23;15.75;;;6.70;23.80;;;;;;5096335;28;20176;-67
2020/12/14 04:25:54;;;;;;;18.63;17.23;;;6.70;24.00;;;;;;5096121;28;20185;-67
2020/12/14 04:28:20;;;;;;;15.77;14.70;;;6.60;24.30;;;;;;5096674;28;20172;-67
2020/12/14 04:30:45;;;;;;;18.70;17.50;;;6.70;26.30;;;;;;5096803;28;20397;-67
2020/12/14 04:33:11;;;;;;;15.10;14.30;;;6.70;27.60;;;;;;5096420;28;20513;-67
2020/12/14 04:35:37;;;;;;;17.30;16.20;;;6.80;29.50;;;;;;5096742;28;20185;-67
2020/12/14 04:38:03;;;;;;;17.48;16.42;;;6.70;31.80;;;;;;5096075;28;20226;-67
2020/12/14 04:40:30;;;;;;;16.27;14.97;;;6.60;29.50;;;;;;5094962;28;20631;-67
2020/12/14 04:42:58;;;;;;;15.30;14.50;;;6.60;29.80;;;;;;5096064;28;20887;-67
2020/12/14 04:45:28;;;;;;;17.05;16.23;;;6.70;30.90;;;;;;5096342;28;20176;-67
2020/12/14 04:47:57;;;;;;;16.65;15.75;;;6.60;31.20;;;;;;5095711;28;20192;-67
2020/12/14 04:50:24;;;;;;;20.25;18.90;;;6.70;31.90;;;;;;5096480;28;20222;-67
2020/12/14 04:52:51;;;;;;;19.30;18.30;;;6.70;34.20;;;;;;5095783;28;20172;-67
2020/12/14 04:55:21;;;;;;;25.35;24.25;;;6.70;32.10;;;;;;5095881;28;20241;-67
2020/12/14 04:57:47;;;;;;;18.38;17.58;;;6.70;32.00;;;;;;5096288;28;20255;-67
2020/12/14 05:00:14;;;;;;;20.55;19.45;;;6.80;33.20;;;;;;5096283;28;20656;-67
2020/12/14 05:02:40;;;;;;;19.88;18.95;;;6.80;36.10;;;;;;5095488;28;20271;-67
2020/12/14 05:05:11;;;;;;;21.03;19.80;;;6.70;34.60;;;;;;5095823;28;20259;-67
2020/12/14 05:07:44;;;;;;;14.32;13.52;;;6.70;34.50;;;;;;5096270;28;20238;-67
2020/12/14 05:10:13;;;;;;;20.80;19.92;;;6.70;35.50;;;;;;5095765;28;20267;-67
2020/12/14 05:12:45;;;;;;;20.63;19.30;;;6.70;36.30;;;;;;5095782;28;20549;-67
2020/12/14 05:15:26;;;;;;;20.67;19.42;;;6.80;37.70;;;;;;5095956;28;20268;-67
2020/12/14 05:18:08;;;;;;;20.42;19.48;;;6.70;38.20;;;;;;5095741;28;20188;-67
2020/12/14 05:20:34;;;;;;;16.65;15.80;;;6.80;39.90;;;;;;5095519;28;20193;-67
2020/12/14 05:23:03;;;;;;;15.40;14.60;;;6.80;40.70;;;;;;5095586;28;20198;-67
2020/12/14 05:25:29;;;;;;;16.63;15.23;;;6.80;42.00;;;;;;5095172;28;20165;-67
2020/12/14 05:28:14;;;;;;;18.30;17.20;;;6.80;43.90;;;;;;5095789;28;20241;-66
2020/12/14 05:30:45;;;;;;;18.35;17.30;;;6.80;44.70;;;;;;5095461;28;20768;-67
2020/12/14 05:33:12;;;;;;;14.43;13.73;;;6.80;47.10;;;;;;5095148;28;20173;-67
2020/12/14 05:35:42;;;;;;;18.70;17.60;;;6.70;45.80;;;;;;5094187;28;20188;-67
2020/12/14 05:38:09;;;;;;;16.40;15.70;;;6.70;47.80;;;;;;5095358;28;20173;-67
2020/12/14 05:40:34;;;;;;;18.13;17.42;;;6.70;48.70;;;;;;5095120;28;20173;-67
2020/12/14 05:43:07;;;;;;;16.70;15.90;;;6.70;50.20;;;;;;5094839;28;20230;-67
2020/12/14 05:45:33;;;;;;;18.65;17.60;;;6.60;50.80;;;;;;5095142;28;20165;-67
2020/12/14 05:47:58;;;;;;;17.40;16.57;;;6.60;51.50;;;;;;5095133;28;20257;-67
2020/12/14 05:50:26;;;;;;;18.00;16.97;;;6.60;52.80;;;;;;5094257;28;20192;-67
2020/12/14 05:52:53;;;;;;;16.27;14.90;;;6.70;55.30;;;;;;5094571;28;20222;-67
2020/12/14 05:55:21;;;;;;;16.02;15.02;;;6.60;55.70;;;;;;5094606;28;20489;-67
2020/12/14 05:57:53;;;;;;;19.20;18.30;;;6.60;56.10;;;;;;5094826;28;20210;-67
2020/12/14 06:00:19;;;;;;;17.60;16.50;;;6.60;56.60;;;;;;5094663;28;20169;-67
2020/12/14 06:02:45;;;;;;;20.80;19.40;;;6.70;57.40;;;;;;5094415;28;20533;-67
2020/12/14 06:05:11;;;;;;;16.60;15.60;;;6.60;56.90;;;;;;5095048;28;20414;-67
2020/12/14 06:07:38;;;;;;;19.50;18.20;;;6.70;57.60;;;;;;5094290;28;20626;-67
2020/12/14 06:10:12;;;;;;;19.65;18.45;;;6.70;58.20;;;;;;5094608;28;20222;-67
2020/12/14 06:12:45;;;;;;;16.58;15.68;;;6.70;58.40;;;;;;5094281;28;20200;-67
2020/12/14 06:15:17;;;;;;;17.80;16.05;;;6.70;59.00;;;;;;5094662;28;20566;-67
2020/12/14 06:17:46;;;;;;;18.05;16.95;;;6.80;59.50;;;;;;5094719;28;20180;-67
2020/12/14 06:20:16;;;;;;;14.80;13.80;;;6.70;60.30;;;;;;5094481;28;20168;-67
2020/12/14 06:23:17;;;;;;;23.20;21.98;;;6.80;62.70;;;;;;5094133;28;20180;-67
2020/12/14 06:25:44;;;;;;;30.83;28.80;;;6.80;63.60;;;;;;5012435;28;20336;-67
2020/12/14 06:28:29;;;;;;;23.58;22.15;;;6.70;66.50;;;;;;5078405;28;20219;-67
2020/12/14 06:30:56;;;;;;;24.20;22.88;;;6.70;70.20;;;;;;5094164;28;20181;-67
2020/12/14 06:33:41;;;;;;;22.00;20.77;;;6.70;72.10;;;;;;5093786;28;20255;-67
2020/12/14 06:36:22;;;;;;;22.25;21.25;;;6.70;74.60;;;;;;5093975;28;20220;-67
2020/12/14 06:38:49;;;;;;;25.42;24.33;;;6.70;84.00;;;;;;5094600;28;20161;-67
2020/12/14 06:41:16;;;;;;;19.33;18.00;;;6.70;74.20;;;;;;5093783;28;20512;-67
2020/12/14 06:43:43;;;;;;;19.30;18.30;;;6.70;74.20;;;;;;5094375;28;20497;-67
2020/12/14 06:46:09;;;;;;;23.10;21.60;;;6.70;74.10;;;;;;5093719;28;20200;-67
2020/12/14 06:48:42;;;;;;;22.47;21.40;;;6.70;74.50;;;;;;5094288;28;20168;-67
2020/12/14 06:51:17;;;;;;;24.55;22.75;;;6.70;75.30;;;;;;5093919;28;20538;-67
2020/12/14 06:53:52;;;;;;;20.27;18.55;;;6.70;76.80;;;;;;5093801;28;20494;-66
2020/12/14 06:56:41;;;;;;;23.17;21.50;;;6.70;74.90;;;;;;5093941;28;20195;-67
2020/12/14 06:59:28;;;;;;;25.30;22.95;;;6.70;74.70;;;;;;5081829;28;20184;-67
2020/12/14 07:02:05;;;;;;;27.13;24.27;;;6.70;74.80;;;;;;5092757;28;20172;-66
2020/12/14 07:04:36;;;;;;;23.75;21.90;;;6.80;71.90;;;;;;5093816;28;20638;-67
2020/12/14 07:07:04;;;;;;;20.25;18.83;;;6.80;71.90;;;;;;5094017;28;20574;-67
2020/12/14 07:09:35;;;;;;;21.42;19.92;;;6.90;72.20;;;;;;5091552;28;20169;-67
2020/12/14 07:12:09;;;;;;;21.75;20.75;;;6.90;70.70;;;;;;5092961;28;20204;-67
2020/12/14 07:14:53;;;;;;;22.08;20.98;;;6.90;70.00;;;;;;5093602;28;20160;-67
2020/12/14 07:17:20;;;;;;;18.85;17.95;;;7.00;68.90;;;;;;5092977;28;20199;-68
2020/12/14 07:19:46;;;;;;;16.00;14.98;;;6.90;69.40;;;;;;5093776;28;20165;-67
2020/12/14 07:22:19;;;;;;;15.18;14.27;;;7.00;70.60;;;;;;5093263;28;20218;-67
2020/12/14 07:25:00;;;;;;;16.15;15.00;;;7.00;71.80;;;;;;5093548;28;20222;-67
2020/12/14 07:27:27;;;;;;;13.82;13.18;;;7.00;73.70;;;;;;5093562;28;20226;-67
2020/12/14 07:30:02;;;;;;;14.40;13.30;;;7.00;74.10;;;;;;5093522;28;20183;-68
2020/12/14 07:32:27;;;;;;;15.77;14.75;;;7.00;74.70;;;;;;5092231;28;20174;-66
2020/12/14 07:34:53;;;;;;;14.50;13.80;;;7.10;76.00;;;;;;5092762;28;20631;-68
2020/12/14 07:37:22;;;;;;;21.03;19.60;;;7.10;76.60;;;;;;5091684;28;20188;-67
2020/12/14 07:39:48;;;;;;;19.20;18.30;;;7.20;79.30;;;;;;5093482;28;20268;-67
2020/12/14 07:42:24;;;;;;;18.77;17.98;;;7.20;79.70;;;;;;5092247;28;20180;-67
2020/12/14 07:44:50;;;;;;;19.05;18.00;;;7.30;82.70;;;;;;5093703;28;20168;-67
2020/12/14 07:47:21;;;;;;;17.17;16.17;;;7.20;83.70;;;;;;5093467;28;20197;-67
2020/12/14 07:49:47;;;;;;;21.90;20.88;;;7.20;86.50;;;;;;5093218;28;20176;-67
2020/12/14 07:52:29;;;;;;;16.97;16.17;;;7.30;87.90;;;;;;5093144;28;20173;-67
2020/12/14 07:54:59;;;;;;;18.42;17.55;;;7.30;90.40;;;;;;5093511;28;20182;-67
2020/12/14 07:57:30;;;;;;;21.45;20.10;;;7.30;91.70;;;;;;5093611;28;20583;-67
2020/12/14 07:59:56;;;;;;;21.10;20.08;;;7.10;94.70;;;;;;5093759;28;20650;-67
2020/12/14 08:02:22;;;;;;;22.20;20.73;;;7.20;97.30;;;;;;5093010;28;20180;-67
2020/12/14 08:04:48;;;;;;;19.23;17.98;;;7.10;99.30;;;;;;5092988;28;20627;-67
2020/12/14 08:07:18;;;;;;;18.10;17.00;;;6.90;99.90;;;;;;5092911;28;20250;-67
2020/12/14 08:09:48;;;;;;;20.90;19.98;;;6.90;99.90;;;;;;5093249;28;20164;-67
2020/12/14 08:12:15;;;;;;;19.20;18.15;;;6.90;99.90;;;;;;5092913;28;20298;-67
2020/12/14 08:14:45;;;;;;;21.63;20.52;;;6.90;99.90;;;;;;5095806;28;20172;-67
2020/12/14 08:17:12;;;;;;;20.38;19.02;;;6.90;99.90;;;;;;5096926;28;20241;-67
2020/12/14 08:19:38;;;;;;;19.02;17.83;;;7.00;99.90;;;;;;5096554;28;20526;-67
2020/12/14 08:22:07;;;;;;;19.57;18.27;;;7.10;99.90;;;;;;5096414;28;20165;-67
2020/12/14 08:24:33;;;;;;;19.88;18.52;;;7.00;99.90;;;;;;5096491;28;20522;-67
2020/12/14 08:27:01;;;;;;;15.90;15.00;;;7.00;99.90;;;;;;5096184;28;20205;-67
2020/12/14 08:29:31;;;;;;;20.10;19.17;;;7.00;99.90;;;;;;5096331;28;20615;-67
2020/12/14 08:32:00;;;;;;;19.00;17.52;;;7.00;99.90;;;;;;5096387;28;20171;-67
2020/12/14 08:34:35;;;;;;;16.10;15.40;;;7.00;99.90;;;;;;5096156;28;20207;-67
2020/12/14 08:37:02;;;;;;;20.48;19.58;;;6.90;99.90;;;;;;5096542;28;20188;-67
2020/12/14 08:39:28;;;;;;;17.80;16.90;;;6.90;99.90;;;;;;5096246;28;20200;-67
2020/12/14 08:42:04;;;;;;;22.57;21.57;;;7.00;99.90;;;;;;5096556;28;20173;-67
2020/12/14 08:44:30;;;;;;;23.33;22.25;;;7.10;99.90;;;;;;5096259;28;20402;-67
2020/12/14 08:46:56;;;;;;;19.60;18.20;;;7.10;99.90;;;;;;5095909;28;20193;-67
2020/12/14 08:49:21;;;;;;;20.67;19.20;;;7.20;99.90;;;;;;5088110;28;20199;-66
2020/12/14 08:51:48;;;;;;;24.23;23.10;;;7.10;99.90;;;;;;5084122;28;20170;-67
2020/12/14 08:54:19;;;;;;;22.58;21.48;;;7.10;99.90;;;;;;5083184;28;20168;-68
2020/12/14 08:56:46;;;;;;;23.95;22.75;;;7.10;99.90;;;;;;5085029;28;20219;-67
2020/12/14 08:59:13;;;;;;;22.70;21.38;;;7.10;99.90;;;;;;5084767;28;20298;-68
2020/12/14 09:01:39;;;;;;;22.52;21.35;;;7.10;99.90;;;;;;5082542;28;20264;-67
2020/12/14 09:04:06;;;;;;;22.08;20.65;;;7.20;99.90;;;;;;5074390;28;20192;-68
2020/12/14 09:06:32;;;;;;;23.70;22.45;;;7.10;99.90;;;;;;5075628;28;20204;-68
2020/12/14 09:09:11;;;;;;;22.48;21.38;;;7.20;99.90;;;;;;5082948;28;20173;-68
2020/12/14 09:11:48;;;;;;;22.98;21.85;;;7.20;99.90;;;;;;5095294;28;20168;-67
2020/12/14 09:14:31;;;;;;;27.98;26.60;;;7.20;99.90;;;;;;5095867;28;20156;-67
2020/12/14 09:17:01;;;;;;;21.73;20.48;;;7.20;99.90;;;;;;5094199;28;20223;-68
2020/12/14 09:19:28;;;;;;;22.02;20.83;;;7.10;99.90;;;;;;5095445;28;20305;-67
2020/12/14 09:21:54;;;;;;;21.15;20.05;;;7.10;99.90;;;;;;5095088;28;20176;-68
2020/12/14 09:24:26;;;;;;;21.27;20.08;;;7.20;99.90;;;;;;5095489;28;20184;-68
2020/12/14 09:26:54;;;;;;;18.45;17.55;;;7.20;99.90;;;;;;5094981;28;20188;-68
2020/12/14 09:29:19;;;;;;;20.27;18.23;;;7.20;99.90;;;;;;5095796;28;20257;-67
2020/12/14 09:32:04;;;;;;;19.20;17.90;;;7.20;99.90;;;;;;5095599;28;20196;-68
2020/12/14 09:34:30;;;;;;;21.35;20.15;;;7.20;99.90;;;;;;5095314;28;20270;-67
2020/12/14 09:36:57;;;;;;;19.90;18.60;;;7.20;99.90;;;;;;5095344;28;20285;-67
2020/12/14 09:39:25;;;;;;;20.20;18.90;;;7.30;99.80;;;;;;5095445;28;20432;-67
2020/12/14 09:41:52;;;;;;;19.25;17.85;;;7.30;98.30;;;;;;5095254;28;20169;-68
2020/12/14 09:44:18;;;;;;;21.23;19.83;;;7.30;97.40;;;;;;5095325;28;20184;-68
2020/12/14 09:46:44;;;;;;;24.00;22.88;;;7.30;96.70;;;;;;5094830;28;20211;-68
2020/12/14 09:49:10;;;;;;;16.60;15.70;;;7.30;96.70;;;;;;5094993;28;20168;-68
2020/12/14 09:51:36;;;;;;;19.07;17.97;;;7.30;96.90;;;;;;5095210;28;20173;-68
2020/12/14 09:54:03;;;;;;;19.50;18.45;;;7.30;97.90;;;;;;5094672;28;20403;-68
2020/12/14 09:56:29;;;;;;;17.05;15.95;;;7.30;99.00;;;;;;5095189;28;20591;-68
2020/12/14 09:58:54;;;;;;;17.50;16.20;;;7.30;99.70;;;;;;5094628;28;20622;-68
2020/12/14 10:01:20;;;;;;;19.57;18.20;;;7.30;98.50;;;;;;5094634;28;20172;-68
2020/12/14 10:03:46;;;;;;;24.40;23.00;;;7.40;97.40;;;;;;5094636;28;20200;-68
2020/12/14 10:06:15;;;;;;;23.10;21.60;;;7.40;95.80;;;;;;5094359;28;20190;-68
2020/12/14 10:08:41;;;;;;;19.50;18.45;;;7.40;94.30;;;;;;5093736;28;20176;-68
2020/12/14 10:11:11;;;;;;;24.48;22.95;;;7.40;93.80;;;;;;5095039;28;20246;-68
2020/12/14 10:13:38;;;;;;;18.52;17.40;;;7.40;93.30;;;;;;5094294;28;20326;-68
2020/12/14 10:16:04;;;;;;;19.10;17.90;;;7.40;94.60;;;;;;5094228;28;20531;-68
2020/12/14 10:18:32;;;;;;;21.40;20.20;;;7.40;94.80;;;;;;5094530;28;20176;-68
2020/12/14 10:20:58;;;;;;;20.70;19.40;;;7.40;97.30;;;;;;5094671;28;20410;-68
2020/12/14 10:23:24;;;;;;;20.98;19.85;;;7.40;92.70;;;;;;5093974;28;20172;-68
2020/12/14 10:25:50;;;;;;;21.10;19.83;;;7.50;99.90;;;;;;5094719;28;20198;-67
2020/12/14 10:28:15;;;;;;;22.00;20.90;;;7.50;99.90;;;;;;5094082;28;20586;-68
2020/12/14 10:30:41;;;;;;;18.93;17.93;;;7.60;99.90;;;;;;5094599;28;20172;-68
2020/12/14 10:33:07;;;;;;;22.87;20.57;;;7.60;99.90;;;;;;5094190;28;20251;-68
2020/12/14 10:35:32;;;;;;;18.30;17.20;;;7.70;99.90;;;;;;5094229;28;20238;-67
2020/12/14 10:37:58;;;;;;;16.37;15.30;;;7.70;99.90;;;;;;5094582;28;20195;-68
2020/12/14 10:40:25;;;;;;;19.83;18.63;;;7.80;97.90;;;;;;5094545;28;20406;-68
2020/12/14 10:42:51;;;;;;;21.33;19.90;;;7.80;92.20;;;;;;5093850;28;20562;-68
2020/12/14 10:45:17;;;;;;;17.35;16.45;;;7.90;90.00;;;;;;5093939;28;20177;-67
2020/12/14 10:47:43;;;;;;;20.60;19.17;;;7.80;86.70;;;;;;5094262;28;20203;-68
2020/12/14 10:50:09;;;;;;;24.50;23.07;;;7.90;82.00;;;;;;5094395;28;20520;-68
2020/12/14 10:52:35;;;;;;;20.55;19.45;;;8.00;76.80;;;;;;5093836;28;20442;-68
2020/12/14 10:55:02;;;;;;;22.23;20.93;;;8.00;67.70;;;;;;5094381;28;20249;-68
2020/12/14 10:57:28;;;;;;;19.70;18.70;;;8.10;63.60;;;;;;5093574;28;20423;-67
2020/12/14 11:00:03;;;;;;;19.27;17.83;;;8.10;57.90;;;;;;5093972;28;20485;-68
2020/12/14 11:02:28;;;;;;;19.77;18.67;;;8.20;51.60;;;;;;5093847;28;20160;-67
2020/12/14 11:04:54;;;;;;;21.00;19.83;;;8.20;46.90;;;;;;5094129;28;20407;-68
2020/12/14 11:07:19;;;;;;;21.50;19.73;;;8.20;44.90;;;;;;5093381;28;20689;-68
2020/12/14 11:09:45;;;;;;;26.47;25.17;;;8.30;40.40;;;;;;5094040;28;20504;-68
2020/12/14 11:12:11;;;;;;;20.13;19.00;;;8.40;35.70;;;;;;5093555;28;20210;-68
2020/12/14 11:14:36;;;;;;;21.30;20.10;;;8.50;30.40;;;;;;5070808;28;20184;-68
2020/12/14 11:17:03;;;;;;;19.73;18.53;;;8.50;25.60;;;;;;5070994;28;20200;-68
2020/12/14 11:19:29;;;;;;;28.87;27.77;;;8.60;21.80;;;;;;5070078;28;20169;-67
2020/12/14 11:21:55;;;;;;;21.00;19.93;;;8.60;17.70;;;;;;5070280;28;20929;-71
2020/12/14 11:24:21;;;;;;;17.67;16.63;;;8.70;13.00;;;;;;5070120;28;20216;-71
2020/12/14 11:26:47;;;;;;;19.17;18.07;;;8.80;8.80;;;;;;5069729;28;20832;-71
2020/12/14 11:29:13;;;;;;;15.60;14.80;;;8.80;6.40;;;;;;5071092;28;20415;-68
2020/12/14 11:31:39;;;;;;;20.57;19.43;;;8.80;5.40;;;;;;5070996;28;20176;-68
2020/12/14 11:34:04;;;;;;;21.10;19.90;;;8.90;4.20;;;;;;5070882;28;20419;-69
2020/12/14 11:36:31;;;;;;;30.50;28.87;;;8.80;3.30;;;;;;5070773;28;20189;-68
2020/12/14 11:38:58;;;;;;;22.48;21.42;;;8.80;2.50;;;;;;5070549;28;20193;-68
2020/12/14 11:41:24;;;;;;;24.10;22.83;;;8.80;2.20;;;;;;5070851;28;20186;-68
2020/12/14 11:43:49;;;;;;;27.83;26.53;;;8.80;2.00;;;;;;5070916;28;20412;-71
2020/12/14 11:46:15;;;;;;;26.17;25.00;;;8.80;2.60;;;;;;5070765;28;20971;-68
2020/12/14 11:48:40;;;;;;;26.17;24.77;;;8.90;1.00;;;;;;5072283;28;20173;-69
2020/12/14 11:51:06;;;;;;;21.83;20.10;;;8.90;1.00;;;;;;5074693;28;20582;-68
2020/12/14 11:53:32;;;;;;;19.10;18.20;;;9.00;1.00;;;;;;5074016;28;20173;-69
2020/12/14 11:55:57;;;;;;;25.83;24.43;;;9.00;1.00;;;;;;5074464;28;20192;-69
2020/12/14 11:58:23;;;;;;;21.10;19.70;;;8.90;1.00;;;;;;5074462;28;20184;-68
2020/12/14 12:00:48;;;;;;;22.07;20.70;;;9.00;1.00;;;;;;5074470;28;20204;-68
2020/12/14 12:03:14;;;;;;;19.80;18.30;;;9.00;1.00;;;;;;5074224;28;20891;-68
2020/12/14 12:05:39;;;;;;;21.73;20.70;;;9.00;1.00;;;;;;5074266;28;20193;-69
2020/12/14 12:08:05;;;;;;;22.90;21.80;;;9.00;1.00;;;;;;5073861;28;20659;-68
2020/12/14 12:10:31;;;;;;;21.23;20.13;;;9.00;1.00;;;;;;5074295;28;20173;-68
2020/12/14 12:12:56;;;;;;;19.03;17.73;;;9.00;1.00;;;;;;5074071;28;20260;-68
2020/12/14 12:15:22;;;;;;;21.77;20.73;;;9.00;1.00;;;;;;5074186;28;20180;-69
2020/12/14 12:17:47;;;;;;;24.43;23.10;;;9.10;1.00;;;;;;5072835;28;20180;-68
2020/12/14 12:20:13;;;;;;;18.23;17.27;;;9.20;1.00;;;;;;5074107;28;20589;-68
2020/12/14 12:22:39;;;;;;;22.00;20.97;;;9.20;1.00;;;;;;5073948;28;20181;-69
2020/12/14 12:25:05;;;;;;;25.13;23.53;;;9.20;1.00;;;;;;5074104;28;20207;-69
2020/12/14 12:27:30;;;;;;;29.67;26.37;;;9.30;1.00;;;;;;5074080;28;20227;-68
2020/12/14 12:29:56;;;;;;;22.53;21.10;;;9.30;1.00;;;;;;5074041;28;20494;-69
2020/12/14 12:32:21;;;;;;;30.40;28.27;;;9.30;1.00;;;;;;5073788;28;20578;-69
2020/12/14 12:34:47;;;;;;;20.80;19.63;;;9.30;1.00;;;;;;5073952;28;20211;-69
2020/12/14 12:37:13;;;;;;;20.00;18.83;;;9.30;1.00;;;;;;5073844;28;20246;-69
2020/12/14 12:39:39;;;;;;;25.10;23.73;;;9.30;1.00;;;;;;5073830;28;20176;-69
2020/12/14 12:42:05;;;;;;;18.40;17.40;;;9.40;1.00;;;;;;5081675;28;20203;-69